• Join FlightAware (Why Join?)
  • Login
  • US Flag 
01:23AM EST


 

Airport Tracker/Info


-or-


 

Live Flight TrackerFlight Track Log ✈ FIN56 ✈ 10-Jun-2014 ✈ ZUCK / CKG - EFHK / HEL

Flight Track Log - Related Links

Times and Time Zones

All times are in EDT time to prevent confusion due to time zone crossing. See the FIN56 flight status page for this flight to view local times or setup timezone preferences in your user account.

Time Position Orientation Groundspeed Altitude Reporting Facility
EDT Latitude Longitude Course Direction KTS MPH feet Rate Location/Type
09:58PM 30.0125 106.4102 326° Northwest  Level Estimated
09:59PM 30.1101 106.3329 326° Northwest  Level Estimated
10:00PM 30.2077 106.2555 326° Northwest  Level Estimated
10:01PM 30.3052 106.1779 326° Northwest  Level Estimated
10:02PM 30.4027 106.1002 325° Northwest  Level Estimated
10:03PM 30.5001 106.0223 325° Northwest  Level Estimated
10:04PM 30.5975 105.9443 325° Northwest  Level Estimated
10:05PM 30.6949 105.8661 325° Northwest  Level Estimated
10:06PM 30.7922 105.7878 325° Northwest  Level Estimated
10:07PM 30.8894 105.7093 325° Northwest  Level Estimated
10:08PM 30.9866 105.6306 325° Northwest  Level Estimated
10:09PM 31.0837 105.5518 325° Northwest  Level Estimated
10:10PM 31.1809 105.4728 325° Northwest  Level Estimated
10:11PM 31.2779 105.3937 325° Northwest  Level Estimated
10:12PM 31.3749 105.3144 325° Northwest  Level Estimated
10:13PM 31.4719 105.2349 325° Northwest  Level Estimated
10:14PM 31.5688 105.1553 325° Northwest  Level Estimated
10:15PM 31.6656 105.0755 325° Northwest  Level Estimated
10:16PM 31.7625 104.9955 325° Northwest  Level Estimated
10:17PM 31.8592 104.9154 325° Northwest  Level Estimated
10:18PM 31.9559 104.8351 325° Northwest  Level Estimated
10:19PM 32.0526 104.7546 325° Northwest  Level Estimated
10:20PM 32.1492 104.6740 325° Northwest  Level Estimated
10:21PM 32.2458 104.5931 325° Northwest  Level Estimated
10:22PM 32.3423 104.5122 325° Northwest  Level Estimated
10:23PM 32.4387 104.4310 325° Northwest  Level Estimated
10:24PM 32.5351 104.3497 325° Northwest  Level Estimated
10:25PM 32.6315 104.2682 325° Northwest  Level Estimated
10:26PM 32.7278 104.1865 324° Northwest  Level Estimated
10:27PM 32.8240 104.1046 324° Northwest  Level Estimated
10:28PM 32.9202 104.0226 324° Northwest  Level Estimated
10:29PM 33.0163 103.9404 324° Northwest  Level Estimated
10:30PM 33.1124 103.8580 324° Northwest  Level Estimated
10:31PM 33.2084 103.7754 324° Northwest  Level Estimated
10:32PM 33.3044 103.6926 324° Northwest  Level Estimated
10:33PM 33.4003 103.6097 324° Northwest  Level Estimated
10:34PM 33.4962 103.5266 324° Northwest  Level Estimated
10:35PM 33.5920 103.4433 324° Northwest  Level Estimated
10:36PM 33.6878 103.3598 324° Northwest  Level Estimated
10:37PM 33.7835 103.2761 324° Northwest  Level Estimated
10:38PM 33.8791 103.1923 324° Northwest  Level Estimated
10:39PM 33.9747 103.1082 324° Northwest  Level Estimated
10:40PM 34.0702 103.0240 324° Northwest  Level Estimated
10:41PM 34.1672 102.9382 324° Northwest  Level Estimated
10:42PM 34.2641 102.8522 324° Northwest  Level Estimated
10:43PM 34.3610 102.7660 324° Northwest  Level Estimated
10:44PM 34.4578 102.6797 324° Northwest  Level Estimated
10:45PM 34.5545 102.5931 324° Northwest  Level Estimated
10:46PM 34.6512 102.5063 324° Northwest  Level Estimated
10:47PM 34.7478 102.4193 324° Northwest  Level Estimated
10:48PM 34.8444 102.3322 323° Northwest  Level Estimated
10:49PM 34.9409 102.2448 323° Northwest  Level Estimated
10:50PM 35.0373 102.1572 323° Northwest  Level Estimated
10:51PM 35.1337 102.0694 323° Northwest  Level Estimated
10:52PM 35.2300 101.9814 323° Northwest  Level Estimated
10:53PM 35.3262 101.8932 323° Northwest  Level Estimated
10:54PM 35.4224 101.8048 323° Northwest  Level Estimated
10:55PM 35.5185 101.7161 323° Northwest  Level Estimated
10:56PM 35.6146 101.6273 323° Northwest  Level Estimated
10:57PM 35.7105 101.5382 323° Northwest  Level Estimated
10:58PM 35.8065 101.4489 323° Northwest  Level Estimated
10:59PM 35.9023 101.3594 323° Northwest  Level Estimated
11:00PM 35.9981 101.2697 323° Northwest  Level Estimated
11:01PM 36.0938 101.1798 323° Northwest  Level Estimated
11:02PM 36.1895 101.0897 323° Northwest  Level Estimated
11:03PM 36.2850 100.9993 323° Northwest  Level Estimated
11:04PM 36.3806 100.9087 323° Northwest  Level Estimated
11:05PM 36.4760 100.8179 323° Northwest  Level Estimated
11:06PM 36.5714 100.7269 323° Northwest  Level Estimated
11:07PM 36.6667 100.6356 322° Northwest  Level Estimated
11:08PM 36.7619 100.5441 322° Northwest  Level Estimated
11:09PM 36.8571 100.4524 322° Northwest  Level Estimated
11:10PM 36.9522 100.3605 322° Northwest  Level Estimated
11:11PM 37.0472 100.2683 322° Northwest  Level Estimated
11:12PM 37.1422 100.1759 322° Northwest  Level Estimated
11:13PM 37.2371 100.0833 322° Northwest  Level Estimated
11:14PM 37.3319 99.9904 322° Northwest  Level Estimated
11:15PM 37.4266 99.8973 322° Northwest  Level Estimated
11:16PM 37.5213 99.8039 322° Northwest  Level Estimated
11:17PM 37.6159 99.7104 322° Northwest  Level Estimated
11:18PM 37.7104 99.6165 322° Northwest  Level Estimated
11:19PM 37.8048 99.5225 322° Northwest  Level Estimated
11:20PM 37.8992 99.4282 322° Northwest  Level Estimated
11:21PM 37.9935 99.3337 322° Northwest  Level Estimated
11:22PM 38.0877 99.2389 322° Northwest  Level Estimated
11:23PM 38.1819 99.1439 322° Northwest  Level Estimated
11:24PM 38.2759 99.0486 322° Northwest  Level Estimated
11:25PM 38.3699 98.9531 321° Northwest  Level Estimated
11:26PM 38.4638 98.8573 321° Northwest  Level Estimated
11:27PM 38.5576 98.7613 321° Northwest  Level Estimated
11:28PM 38.6514 98.6650 321° Northwest  Level Estimated
11:29PM 38.7451 98.5685 321° Northwest  Level Estimated
11:30PM 38.8386 98.4717 321° Northwest  Level Estimated
11:31PM 38.9322 98.3747 321° Northwest  Level Estimated
11:32PM 39.0256 98.2774 321° Northwest  Level Estimated
11:33PM 39.1189 98.1799 321° Northwest  Level Estimated
11:34PM 39.2122 98.0821 321° Northwest  Level Estimated
11:35PM 39.3054 97.9840 321° Northwest  Level Estimated
11:36PM 39.3985 97.8857 321° Northwest  Level Estimated
11:37PM 39.4915 97.7871 321° Northwest  Level Estimated
11:38PM 39.5845 97.6883 321° Northwest  Level Estimated
11:39PM 39.6773 97.5892 321° Northwest  Level Estimated
11:40PM 39.7701 97.4898 321° Northwest  Level Estimated
11:41PM 39.8628 97.3901 320° Northwest  Level Estimated
11:42PM 39.9554 97.2902 320° Northwest  Level Estimated
11:43PM 40.0479 97.1900 320° Northwest  Level Estimated
11:44PM 40.1403 97.0896 320° Northwest  Level Estimated
11:45PM 40.2327 96.9889 320° Northwest  Level Estimated
11:46PM 40.3249 96.8878 320° Northwest  Level Estimated
11:47PM 40.4171 96.7866 320° Northwest  Level Estimated
11:48PM 40.5092 96.6850 320° Northwest  Level Estimated
11:49PM 40.6011 96.5832 320° Northwest  Level Estimated
11:50PM 40.6930 96.4810 320° Northwest  Level Estimated
11:51PM 40.7848 96.3786 320° Northwest  Level Estimated
11:52PM 40.8766 96.2759 320° Northwest  Level Estimated
11:53PM 40.9682 96.1730 320° Northwest  Level Estimated
11:54PM 41.0597 96.0697 320° Northwest  Level Estimated
11:55PM 41.1511 95.9662 320° Northwest  Level Estimated
11:56PM 41.2425 95.8623 319° Northwest  Level Estimated
11:57PM 41.3338 95.7582 319° Northwest  Level Estimated
11:58PM 41.4249 95.6538 319° Northwest  Level Estimated
11:59PM 41.5160 95.5491 319° Northwest  Level Estimated
12:00AM 41.6069 95.4441 319° Northwest  Level Estimated
12:01AM 41.6978 95.3388 319° Northwest  Level Estimated
12:02AM 41.7886 95.2332 319° Northwest  Level Estimated
12:03AM 41.8793 95.1273 319° Northwest  Level Estimated
12:04AM 41.9699 95.0211 319° Northwest  Level Estimated
12:05AM 42.0603 94.9146 319° Northwest  Level Estimated
12:06AM 42.1507 94.8078 319° Northwest  Level Estimated
12:07AM 42.2410 94.7007 319° Northwest  Level Estimated
12:08AM 42.3312 94.5932 319° Northwest  Level Estimated
12:09AM 42.4213 94.4855 319° Northwest  Level Estimated
12:10AM 42.5113 94.3775 319° Northwest  Level Estimated
12:11AM 42.6012 94.2691 318° Northwest  Level Estimated
12:12AM 42.6909 94.1605 318° Northwest  Level Estimated
12:13AM 42.7806 94.0515 318° Northwest  Level Estimated
12:14AM 42.8702 93.9422 318° Northwest  Level Estimated
12:15AM 42.9597 93.8326 318° Northwest  Level Estimated
12:16AM 43.0490 93.7227 318° Northwest  Level Estimated
12:17AM 43.1383 93.6124 318° Northwest  Level Estimated
12:18AM 43.2275 93.5018 318° Northwest  Level Estimated
12:19AM 43.3165 93.3910 318° Northwest  Level Estimated
12:20AM 43.4054 93.2797 318° Northwest  Level Estimated
12:21AM 43.4943 93.1682 318° Northwest  Level Estimated
12:22AM 43.5830 93.0563 318° Northwest  Level Estimated
12:23AM 43.6716 92.9441 318° Northwest  Level Estimated
12:24AM 43.7601 92.8316 317° Northwest  Level Estimated
12:25AM 43.8485 92.7187 317° Northwest  Level Estimated
12:26AM 43.9368 92.6055 317° Northwest  Level Estimated
12:27AM 44.0249 92.4920 317° Northwest  Level Estimated
12:28AM 44.1130 92.3781 317° Northwest  Level Estimated
12:29AM 44.2010 92.2639 317° Northwest  Level Estimated
12:30AM 44.2888 92.1493 317° Northwest  Level Estimated
12:31AM 44.3765 92.0344 317° Northwest  Level Estimated
12:32AM 44.4641 91.9192 317° Northwest  Level Estimated
12:33AM 44.5516 91.8036 317° Northwest  Level Estimated
12:34AM 44.6389 91.6876 317° Northwest  Level Estimated
12:35AM 44.7262 91.5713 317° Northwest  Level Estimated
12:36AM 44.8133 91.4547 316° Northwest  Level Estimated
12:37AM 44.9003 91.3377 316° Northwest  Level Estimated
12:38AM 44.9872 91.2203 316° Northwest  Level Estimated
12:39AM 45.0740 91.1026 316° Northwest  Level Estimated
12:40AM 45.1606 90.9846 316° Northwest  Level Estimated
12:41AM 45.2472 90.8661 316° Northwest  Level Estimated
12:42AM 45.3336 90.7474 316° Northwest  Level Estimated
12:43AM 45.4198 90.6282 316° Northwest  Level Estimated
12:44AM 45.5060 90.5087 316° Northwest  Level Estimated
12:45AM 45.5920 90.3888 316° Northwest  Level Estimated
12:46AM 45.6779 90.2686 316° Northwest  Level Estimated
12:47AM 45.7637 90.1480 316° Northwest  Level Estimated
12:48AM 45.8494 90.0270 315° West  Level Estimated
12:49AM 45.9349 89.9056 315° West  Level Estimated
12:50AM 46.0203 89.7839 315° West  Level Estimated
12:51AM 46.1055 89.6618 315° West  Level Estimated
12:52AM 46.1907 89.5393 315° West  Level Estimated
12:53AM 46.2757 89.4165 315° West  Level Estimated
12:54AM 46.3605 89.2932 315° West  Level Estimated
12:55AM 46.4453 89.1696 315° West  Level Estimated
12:56AM 46.5299 89.0456 315° West  Level Estimated
12:57AM 46.6144 88.9212 315° West  Level Estimated
12:58AM 46.6987 88.7964 315° West  Level Estimated
12:59AM 46.7829 88.6712 315° West  Level Estimated
01:00AM 46.8670 88.5456 314° West  Level Estimated
01:01AM 46.9509 88.4196 314° West  Level Estimated
01:02AM 47.0347 88.2933 314° West  Level Estimated
01:03AM 47.1183 88.1665 314° West  Level Estimated
01:04AM 47.2018 88.0394 314° West  Level Estimated
01:05AM 47.2852 87.9118 314° West  Level Estimated
01:06AM 47.3684 87.7839 314° West  Level Estimated
01:07AM 47.4515 87.6555 314° West  Level Estimated
01:08AM 47.5344 87.5267 314° West  Level Estimated
01:09AM 47.6172 87.3975 314° West  Level Estimated
01:10AM 47.6999 87.2680 313° West  Level Estimated
01:11AM 47.7824 87.1379 313° West  Level Estimated
01:12AM 47.8647 87.0075 313° West  Level Estimated
01:13AM 47.9469 86.8767 313° West  Level Estimated
01:14AM 48.0290 86.7455 313° West  Level Estimated
01:15AM 48.1109 86.6138 313° West  Level Estimated
01:16AM 48.1926 86.4817 313° West  Level Estimated
01:17AM 48.2742 86.3492 313° West  Level Estimated
01:18AM 48.3557 86.2163 313° West  Level Estimated
01:19AM 48.4370 86.0829 313° West  Level Estimated
01:20AM 48.5181 85.9492 313° West  Level Estimated
01:21AM 48.5991 85.8150 312° West  Level Estimated
01:22AM 48.6799 85.6803 312° West  Level Estimated
01:23AM 48.7606 85.5452 312° West  Level Estimated
01:24AM 48.8411 85.4098 312° West  Level Estimated
01:25AM 48.9215 85.2738 312° West  Level Estimated
01:26AM 49.0017 85.1374 312° West  Level Estimated
01:27AM 49.0817 85.0006 312° West  Level Estimated
01:28AM 49.1616 84.8634 312° West  Level Estimated
01:29AM 49.2413 84.7257 312° West  Level Estimated
01:30AM 49.3208 84.5875 311° West  Level Estimated
01:31AM 49.4002 84.4489 311° West  Level Estimated
01:32AM 49.4794 84.3099 311° West  Level Estimated
01:33AM 49.5585 84.1704 311° West  Level Estimated
01:34AM 49.6373 84.0304 311° West  Level Estimated
01:35AM 49.7160 83.8900 311° West  Level Estimated
01:36AM 49.7946 83.7492 311° West  Level Estimated
01:37AM 49.8730 83.6079 311° West  Level Estimated
01:38AM 49.9511 83.4661 311° West  Level Estimated
01:39AM 50.0292 83.3239 311° West  Level Estimated
01:40AM 50.1070 83.1812 310° West  Level Estimated
01:41AM 50.1847 83.0380 310° West  Level Estimated
01:42AM 50.2622 82.8944 310° West  Level Estimated
01:43AM 50.3395 82.7503 310° West  Level Estimated
01:44AM 50.4166 82.6058 310° West  Level Estimated
01:45AM 50.4936 82.4607 310° West  Level Estimated
01:46AM 50.5704 82.3152 310° West  Level Estimated
01:47AM 50.6470 82.1693 310° West  Level Estimated
01:48AM 50.7234 82.0228 310° West  Level Estimated
01:49AM 50.7996 81.8759 309° West  Level Estimated
01:50AM 50.8756 81.7285 309° West  Level Estimated
01:51AM 50.9515 81.5806 309° West  Level Estimated
01:52AM 51.0272 81.4322 309° West  Level Estimated
01:53AM 51.1026 81.2834 309° West  Level Estimated
01:54AM 51.1780 81.1340 309° West  Level Estimated
01:55AM 51.2531 80.9842 309° West  Level Estimated
01:56AM 51.3280 80.8339 309° West  Level Estimated
01:57AM 51.4027 80.6831 308° West  Level Estimated
01:58AM 51.4772 80.5317 308° West  Level Estimated
01:59AM 51.5515 80.3799 308° West  Level Estimated
02:00AM 51.6256 80.2276 308° West  Level Estimated
02:01AM 51.6996 80.0749 308° West  Level Estimated
02:02AM 51.7733 79.9215 308° West  Level Estimated
02:03AM 51.8469 79.7678 308° West  Level Estimated
02:04AM 51.9202 79.6135 308° West  Level Estimated
02:05AM 51.9933 79.4587 308° West  Level Estimated
02:06AM 52.0662 79.3034 307° West  Level Estimated
02:07AM 52.1390 79.1475 307° West  Level Estimated
02:08AM 52.2115 78.9912 307° West  Level Estimated
02:09AM 52.2838 78.8344 307° West  Level Estimated
02:10AM 52.3559 78.6770 307° West  Level Estimated
02:11AM 52.4278 78.5192 307° West  Level Estimated
02:12AM 52.4995 78.3608 307° West  Level Estimated
02:13AM 52.5709 78.2019 307° West  Level Estimated
02:14AM 52.6422 78.0425 306° West  Level Estimated
02:15AM 52.7132 77.8826 306° West  Level Estimated
02:16AM 52.7840 77.7221 306° West  Level Estimated
02:17AM 52.8546 77.5611 306° West  Level Estimated
02:18AM 52.9250 77.3997 306° West  Level Estimated
02:19AM 52.9952 77.2376 306° West  Level Estimated
02:20AM 53.0652 77.0751 306° West  Level Estimated
02:21AM 53.1349 76.9120 306° West  Level Estimated
02:22AM 53.2044 76.7484 305° West  Level Estimated
02:23AM 53.2737 76.5843 305° West  Level Estimated
02:24AM 53.3427 76.4196 305° West  Level Estimated
02:25AM 53.4115 76.2544 305° West  Level Estimated
02:26AM 53.4801 76.0887 305° West  Level Estimated
02:27AM 53.5485 75.9224 305° West  Level Estimated
02:28AM 53.6166 75.7556 305° West  Level Estimated
02:29AM 53.6845 75.5882 304° West  Level Estimated
02:30AM 53.7522 75.4203 304° West  Level Estimated
02:31AM 53.8196 75.2519 304° West  Level Estimated
02:32AM 53.8868 75.0829 304° West  Level Estimated
02:33AM 53.9538 74.9134 304° West  Level Estimated
02:34AM 54.0205 74.7434 304° West  Level Estimated
02:35AM 54.0870 74.5728 304° West  Level Estimated
02:36AM 54.1532 74.4016 304° West  Level Estimated
02:37AM 54.2192 74.2299 303° West  Level Estimated
02:38AM 54.2849 74.0577 303° West  Level Estimated
02:39AM 54.3504 73.8849 303° West  Level Estimated
02:40AM 54.4157 73.7115 303° West  Level Estimated
02:41AM 54.4807 73.5377 303° West  Level Estimated
02:42AM 54.5454 73.3632 303° West  Level Estimated
02:43AM 54.6099 73.1882 303° West  Level Estimated
02:44AM 54.6742 73.0126 302° West  Level Estimated
02:45AM 54.7382 72.8365 302° West  Level Estimated
02:46AM 54.8019 72.6599 302° West  Level Estimated
02:47AM 54.8654 72.4826 302° West  Level Estimated
02:48AM 54.9286 72.3048 302° West  Level Estimated
02:49AM 54.9916 72.1265 302° West  Level Estimated
02:50AM 55.0543 71.9476 302° West  Level Estimated
02:51AM 55.1167 71.7682 301° West  Level Estimated
02:52AM 55.1789 71.5881 301° West  Level Estimated
02:53AM 55.2408 71.4075 301° West  Level Estimated
02:54AM 55.3024 71.2264 301° West  Level Estimated
02:55AM 55.3638 71.0447 301° West  Level Estimated
02:56AM 55.4249 70.8624 301° West  Level Estimated
02:57AM 55.4857 70.6796 300° West  Level Estimated
02:58AM 55.5463 70.4962 300° West  Level Estimated
02:59AM 55.6066 70.3122 300° West  Level Estimated
03:00AM 55.6666 70.1277 300° West  Level Estimated
03:01AM 55.7263 69.9426 300° West  Level Estimated
03:02AM 55.7857 69.7569 300° West  Level Estimated
03:03AM 55.8449 69.5707 300° West  Level Estimated
03:04AM 55.9038 69.3839 299° West  Level Estimated
03:05AM 55.9624 69.1966 299° West  Level Estimated
03:06AM 56.0207 69.0086 299° West  Level Estimated
03:07AM 56.0787 68.8201 299° West  Level Estimated
03:08AM 56.1365 68.6311 299° West  Level Estimated
03:09AM 56.1939 68.4415 299° West  Level Estimated
03:10AM 56.2511 68.2513 298° West  Level Estimated
03:11AM 56.3080 68.0605 298° West  Level Estimated
03:12AM 56.3645 67.8692 298° West  Level Estimated
03:13AM 56.4208 67.6773 298° West  Level Estimated
03:14AM 56.4768 67.4848 298° West  Level Estimated
03:15AM 56.5325 67.2918 298° West  Level Estimated
03:16AM 56.5879 67.0982 298° West  Level Estimated
03:17AM 56.6429 66.9040 297° West  Level Estimated
03:18AM 56.6977 66.7093 297° West  Level Estimated
03:19AM 56.7522 66.5140 297° West  Level Estimated
03:20AM 56.8064 66.3181 297° West  Level Estimated
03:21AM 56.8602 66.1217 297° West  Level Estimated
03:22AM 56.9138 65.9247 297° West  Level Estimated
03:23AM 56.9670 65.7271 296° West  Level Estimated
03:24AM 57.0199 65.5290 296° West  Level Estimated
03:25AM 57.0726 65.3304 296° West  Level Estimated
03:26AM 57.1249 65.1311 296° West  Level Estimated
03:27AM 57.1768 64.9313 296° West  Level Estimated
03:28AM 57.2285 64.7309 296° West  Level Estimated
03:29AM 57.2798 64.5300 295° West  Level Estimated
03:30AM 57.3309 64.3285 295° West  Level Estimated
03:31AM 57.3816 64.1265 295° West  Level Estimated
03:32AM 57.4319 63.9239 295° West  Level Estimated
03:33AM 57.4820 63.7207 295° West  Level Estimated
03:34AM 57.5317 63.5170 295° West  Level Estimated
03:35AM 57.5811 63.3127 294° West  Level Estimated
03:36AM 57.6302 63.1079 294° West  Level Estimated
03:37AM 57.6789 62.9025 294° West  Level Estimated
03:38AM 57.7273 62.6966 294° West  Level Estimated
03:39AM 57.7753 62.4901 294° West  Level Estimated
03:40AM 57.8231 62.2831 293° West  Level Estimated
03:41AM 57.8705 62.0755 293° West  Level Estimated
03:42AM 57.9175 61.8674 293° West  Level Estimated
03:43AM 57.9642 61.6587 293° West  Level Estimated
03:44AM 58.0106 61.4495 293° West  Level Estimated
03:45AM 58.0566 61.2397 293° West  Level Estimated
03:46AM 58.1023 61.0295 292° West  Level Estimated
03:47AM 58.1476 60.8186 292° West  Level Estimated
03:48AM 58.1926 60.6073 292° West  Level Estimated
03:49AM 58.2372 60.3954 292° West  Level Estimated
03:50AM 58.2815 60.1830 292° West  Level Estimated
03:51AM 58.3254 59.9700 292° West  Level Estimated
03:52AM 58.3690 59.7565 291° West  Level Estimated
03:53AM 58.4122 59.5425 291° West  Level Estimated
03:54AM 58.4550 59.3280 291° West  Level Estimated
03:55AM 58.4975 59.1129 291° West  Level Estimated
03:56AM 58.5397 58.8974 291° West  Level Estimated
03:57AM 58.5815 58.6813 290° West  Level Estimated
03:58AM 58.6229 58.4647 290° West  Level Estimated
03:59AM 58.6639 58.2476 290° West  Level Estimated
04:00AM 58.7046 58.0299 290° West  Level Estimated
04:01AM 58.7449 57.8118 290° West  Level Estimated
04:02AM 58.7848 57.5932 290° West  Level Estimated
04:03AM 58.8244 57.3741 289° West  Level Estimated
04:04AM 58.8636 57.1544 289° West  Level Estimated
04:05AM 58.9024 56.9343 289° West  Level Estimated
04:06AM 58.9409 56.7137 289° West  Level Estimated
04:07AM 58.9790 56.4925 289° West  Level Estimated
04:08AM 59.0167 56.2710 288° West  Level Estimated
04:09AM 59.0540 56.0489 288° West  Level Estimated
04:10AM 59.0909 55.8263 288° West  Level Estimated
04:11AM 59.1275 55.6033 288° West  Level Estimated
04:12AM 59.1637 55.3798 288° West  Level Estimated
04:13AM 59.1994 55.1558 287° West  Level Estimated
04:14AM 59.2348 54.9313 287° West  Level Estimated
04:15AM 59.2699 54.7064 287° West  Level Estimated
04:16AM 59.3045 54.4810 287° West  Level Estimated
04:17AM 59.3387 54.2552 287° West  Level Estimated
04:18AM 59.3726 54.0289 286° West  Level Estimated
04:19AM 59.4060 53.8022 286° West  Level Estimated
04:20AM 59.4391 53.5750 286° West  Level Estimated
04:21AM 59.4717 53.3474 286° West  Level Estimated
04:22AM 59.5040 53.1193 286° West  Level Estimated
04:23AM 59.5359 52.8908 285° West  Level Estimated
04:24AM 59.5673 52.6619 285° West  Level Estimated
04:25AM 59.5984 52.4325 285° West  Level Estimated
04:26AM 59.6291 52.2028 285° West  Level Estimated
04:27AM 59.6594 51.9726 285° West  Level Estimated
04:28AM 59.6892 51.7420 284° West  Level Estimated
04:29AM 59.7187 51.5110 284° West  Level Estimated
04:30AM 59.7477 51.2796 284° West  Level Estimated
04:31AM 59.7764 51.0477 284° West  Level Estimated
04:32AM 59.8046 50.8155 284° West  Level Estimated
04:33AM 59.8324 50.5829 283° West  Level Estimated
04:34AM 59.8598 50.3499 283° West  Level Estimated
04:35AM 59.8868 50.1166 283° West  Level Estimated
04:36AM 59.9134 49.8828 283° West  Level Estimated
04:37AM 59.9396 49.6487 283° West  Level Estimated
04:38AM 59.9654 49.4142 282° West  Level Estimated
04:39AM 59.9907 49.1794 282° West  Level Estimated
04:40AM 60.0156 48.9442 282° West  Level Estimated
04:41AM 60.0401 48.7086 282° West  Level Estimated
04:42AM 60.0642 48.4727 282° West  Level Estimated
04:43AM 60.0879 48.2365 281° West  Level Estimated
04:44AM 60.1111 47.9999 281° West  Level Estimated
04:45AM 60.1340 47.7630 281° West  Level Estimated
04:46AM 60.1564 47.5257 281° West  Level Estimated
04:47AM 60.1783 47.2882 281° West  Level Estimated
04:48AM 60.1999 47.0503 280° West  Level Estimated
04:49AM 60.2210 46.8121 280° West  Level Estimated
04:50AM 60.2417 46.5737 280° West  Level Estimated
04:51AM 60.2620 46.3349 280° West  Level Estimated
04:52AM 60.2818 46.0958 280° West  Level Estimated
04:53AM 60.3012 45.8564 279° West  Level Estimated
04:54AM 60.3202 45.6168 279° West  Level Estimated
04:55AM 60.3387 45.3769 279° West  Level Estimated
04:56AM 60.3568 45.1367 279° West  Level Estimated
04:57AM 60.3745 44.8962 279° West  Level Estimated
04:58AM 60.3918 44.6555 278° West  Level Estimated
04:59AM 60.4086 44.4145 278° West  Level Estimated
05:00AM 60.4249 44.1733 278° West  Level Estimated
05:01AM 60.4409 43.9319 278° West  Level Estimated
05:02AM 60.4564 43.6902 278° West  Level Estimated
05:03AM 60.4715 43.4483 277° West  Level Estimated
05:04AM 60.4861 43.2062 277° West  Level Estimated
05:05AM 60.5003 42.9638 277° West  Level Estimated
05:06AM 60.5140 42.7212 277° West  Level Estimated
05:07AM 60.5273 42.4785 276° West  Level Estimated
05:08AM 60.5402 42.2355 276° West  Level Estimated
05:09AM 60.5526 41.9924 276° West  Level Estimated
05:10AM 60.5646 41.7491 276° West  Level Estimated
05:11AM 60.5761 41.5056 276° West  Level Estimated
05:12AM 60.5872 41.2619 275° West  Level Estimated
05:13AM 60.5979 41.0180 275° West  Level Estimated
05:14AM 60.6081 40.7740 275° West  Level Estimated
05:15AM 60.6178 40.5299 275° West  Level Estimated
05:16AM 60.6272 40.2856 275° West  Level Estimated
05:17AM 60.6360 40.0412 274° West  Level Estimated
05:18AM 60.6445 39.7966 274° West  Level Estimated
05:19AM 60.6524 39.5519 274° West  Level Estimated
05:20AM 60.6600 39.3071 274° West  Level Estimated
05:21AM 60.6671 39.0622 273° West  Level Estimated
05:22AM 60.6737 38.8172 273° West  Level Estimated
05:23AM 60.6799 38.5720 273° West  Level Estimated
05:24AM 60.6856 38.3268 273° West  Level Estimated
05:25AM 60.6909 38.0816 273° West  Level Estimated
05:26AM 60.6958 37.8362 272° West  Level Estimated
05:27AM 60.7002 37.5907 272° West  Level Estimated
05:28AM 60.7041 37.3452 272° West  Level Estimated
05:29AM 60.7076 37.0997 272° West  Level Estimated
05:30AM 60.7107 36.8536 272° West  Level Estimated
05:31AM 60.7133 36.6074 271° West  Level Estimated
05:32AM 60.7154 36.3612 271° West  Level Estimated
05:33AM 60.7172 36.1150 271° West  Level Estimated
05:34AM 60.7184 35.8688 271° West  Level Estimated
05:35AM 60.7192 35.6226 270° West  Level Estimated
05:36AM 60.7196 35.3763 270° West  Level Estimated
05:37AM 60.7195 35.1300 270° West  Level Estimated
05:38AM 60.7189 34.8838 270° West  Level Estimated
05:39AM 60.7179 34.6375 270° West  Level Estimated
05:40AM 60.7164 34.3913 269° West  Level Estimated
05:41AM 60.7145 34.1451 269° West  Level Estimated
05:42AM 60.7122 33.8989 269° West  Level Estimated
05:43AM 60.7094 33.6528 269° West  Level Estimated
05:44AM 60.7061 33.4067 269° West  Level Estimated
05:45AM 60.7024 33.1607 268° West  Level Estimated
05:46AM 60.6982 32.9147 268° West  Level Estimated
05:47AM 60.6936 32.6688 268° West  Level Estimated
05:48AM 60.6885 32.4230 268° West  Level Estimated
05:49AM 60.6830 32.1773 267° West  Level Estimated
05:50AM 60.6771 31.9316 267° West  Level Estimated
05:51AM 60.6706 31.6861 267° West  Level Estimated
05:52AM 60.6638 31.4406 267° West  Level Estimated
05:53AM 60.6565 31.1952 267° West  Level Estimated
05:54AM 60.6487 30.9500 266° West  Level Estimated
05:55AM 60.6405 30.7049 266° West  Level Estimated
05:56AM 60.6318 30.4599 266° West  Level Estimated
05:57AM 60.6227 30.2150 266° West  Level Estimated
05:58AM 60.6132 29.9703 266° West  Level Estimated
05:59AM 60.6032 29.7258 265° West  Level Estimated
06:00AM 60.5928 29.4814 265° West  Level Estimated
06:01AM 60.5819 29.2371 265° West  Level Estimated
06:02AM 60.5705 28.9930 265° West  Level Estimated
06:03AM 60.5587 28.7491 264° West  Level Estimated
06:04AM 60.5465 28.5054 264° West  Level Estimated
06:05AM 60.5339 28.2619 264° West  Level Estimated
06:06AM 60.5207 28.0185 264° West  Level Estimated
06:07AM 60.5072 27.7754 264° West  Level Estimated
06:08AM 60.4932 27.5324 263° West  Level Estimated
06:09AM 60.4788 27.2897 263° West  Level Estimated
06:10AM 60.4639 27.0472 263° West  Level Estimated
06:11AM 60.4486 26.8050 263° West  Level Estimated
06:12AM 60.4328 26.5629 263° West  Level Estimated
06:13AM 60.4166 26.3211 262° West  Level Estimated
06:14AM 60.4000 26.0795 262° West  Level Estimated
06:15AM 60.3829 25.8382 262° West  Level Estimated
06:16AM 60.3654 25.5972 262° West  Level Estimated
06:17AM 60.3475 25.3564 262° West  Level Estimated
06:18AM 60.3291 25.1158 261° West  Level Estimated
06:19AM 60.3172 24.9633 261° West  Level Estimated
06:20AM 60.3172 24.9633 North  Level Estimated
06:21AM 60.3172 24.9633 North  Level Estimated
06:22AM 60.3172 24.9633 North  Level Estimated
06:23AM 60.3172 24.9633 North  Level Estimated
06:24AM 60.3172 24.9633 North  Level Estimated
06:25AM 60.3172 24.9633 North  Level Estimated
06:26AM 60.3172 24.9633 North  Level Estimated
06:27AM 60.3172 24.9633 North  Level Estimated
06:28AM 60.3172 24.9633 North  Level Estimated
06:29AM 60.3172 24.9633 North  Level Estimated
06:30AM 60.3172 24.9633 North  Level Estimated
06:31AM 60.3172 24.9633 North  Level Estimated